Erath, Louisiana
Current Conditions -  °F | °C
As of 12:35 AM on Monday 24 Nov 2014 (Local Time) from KIYA Reporting Station
Scattered Clouds Scattered Clouds  
Wind Chill: 66°   Ceiling: Unl
Heat Index: 66°   Visibility: 7mi
Dew Point: 65°   Wind: 6mph
Humidity: 98%   Direction: 210°SSW
Pressure: 29.73"   Gusts: NA
Location:  29.96°N, 92.04°W
Report Text: KIYA 240635Z AUTO 21005KT 7SM SCT006 19/18 A2973 RMK AO2 T01870184
Loading
Personal Weather Stations






























Interactive Weather Map New forecast layout! Learn more

10-Day Weather Forecast

Advertisements
Track Severe Weather on mobile